Time;durP1;ratioP1;P1;durP2;ratioP2;P2;SDS_P1;SDS_P2;PMS_P1;PMS_P2;Temp;Humidity;BMP_temperature;BMP_pressure;BME280_temperature;BME280_humidity;BME280_pressure;Samples;Min_cycle;Max_cycle;Signal;HPM_P1;HPM_P2
2022/11/12 00:02:40;;;;;;;1.10;1.00;;;20.90;61.80;;;;;;6222282;28;20063;-39
2022/11/12 00:06:01;;;;;;;1.23;1.13;;;20.80;61.70;;;;;;6232812;28;20048;-39
2022/11/12 00:09:20;;;;;;;0.80;0.80;;;20.40;61.40;;;;;;6229809;28;20904;-38
2022/11/12 00:12:40;;;;;;;1.10;0.90;;;20.80;61.90;;;;;;6224784;28;20052;-39
2022/11/12 00:16:00;;;;;;;1.10;1.00;;;20.90;62.00;;;;;;6233653;28;20048;-39
2022/11/12 00:19:20;;;;;;;1.25;0.90;;;20.90;62.10;;;;;;6235347;28;20089;-39
2022/11/12 00:22:41;;;;;;;1.00;0.85;;;20.60;62.00;;;;;;6234406;28;20087;-39
2022/11/12 00:26:01;;;;;;;1.10;1.00;;;20.70;62.00;;;;;;6232312;28;20859;-39
2022/11/12 00:29:20;;;;;;;1.40;1.10;;;20.80;62.20;;;;;;6233935;28;20040;-39
2022/11/12 00:32:40;;;;;;;1.45;1.10;;;20.50;62.00;;;;;;6271759;22;20055;-39
2022/11/12 00:36:00;;;;;;;1.00;0.88;;;20.70;62.20;;;;;;6259741;28;20048;-38
2022/11/12 00:39:21;;;;;;;1.17;1.00;;;21.20;62.30;;;;;;6256111;28;20051;-40
2022/11/12 00:42:40;;;;;;;1.05;0.95;;;20.80;62.30;;;;;;6257733;28;20151;-39
2022/11/12 00:46:00;;;;;;;1.00;0.90;;;20.60;62.20;;;;;;6269910;22;20054;-39
2022/11/12 00:49:20;;;;;;;1.70;0.90;;;20.80;62.50;;;;;;6247810;28;20858;-39
2022/11/12 00:52:41;;;;;;;1.20;1.00;;;20.80;62.40;;;;;;6251527;28;20052;-39
2022/11/12 00:56:03;;;;;;;1.10;0.93;;;20.60;62.20;;;;;;6255891;28;20052;-38
2022/11/12 00:59:20;;;;;;;1.13;1.02;;;20.50;62.00;;;;;;6242549;28;20043;-39
2022/11/12 01:02:40;;;;;;;1.20;1.00;;;20.90;62.20;;;;;;6254905;28;20052;-39
2022/11/12 01:06:02;;;;;;;0.93;0.80;;;20.30;61.90;;;;;;6258061;28;20818;-38
2022/11/12 01:09:20;;;;;;;1.10;1.00;;;20.60;61.90;;;;;;6259746;28;20051;-38
2022/11/12 01:12:41;;;;;;;1.00;0.80;;;20.70;62.20;;;;;;6258463;28;20052;-38
2022/11/12 01:16:04;;;;;;;0.93;0.82;;;20.70;61.80;;;;;;6257294;28;20047;-38
2022/11/12 01:19:20;;;;;;;1.13;1.00;;;20.90;62.00;;;;;;6258964;28;20051;-39
2022/11/12 01:22:40;;;;;;;1.25;1.00;;;20.70;62.20;;;;;;6256144;28;20486;-39
2022/11/12 01:26:04;;;;;;;1.08;0.90;;;20.60;62.00;;;;;;6260772;28;20040;-38
2022/11/12 01:29:23;;;;;;;0.93;0.82;;;20.70;62.00;;;;;;6249660;28;20051;-38
2022/11/12 01:32:40;;;;;;;0.98;0.90;;;20.80;62.00;;;;;;6251009;28;20051;-38
2022/11/12 01:36:00;;;;;;;0.80;0.70;;;20.60;61.90;;;;;;6261789;28;20056;-38
2022/11/12 01:39:20;;;;;;;1.00;0.90;;;20.80;62.10;;;;;;6299386;28;20044;-38
2022/11/12 01:42:40;;;;;;;1.02;0.90;;;20.80;62.10;;;;;;6257320;28;20066;-38
2022/11/12 01:46:05;;;;;;;0.85;0.80;;;21.10;62.30;;;;;;6254231;28;21021;-38
2022/11/12 01:49:25;;;;;;;1.02;0.90;;;20.50;61.80;;;;;;6240481;28;20145;-38
2022/11/12 01:52:43;;;;;;;1.23;0.80;;;20.70;61.90;;;;;;6254252;28;20305;-38
2022/11/12 01:56:03;;;;;;;0.82;0.80;;;20.80;62.00;;;;;;6248630;22;20047;-38
2022/11/12 01:59:27;;;;;;;0.95;0.90;;;20.70;62.00;;;;;;6239601;28;20044;-38
2022/11/12 02:02:45;;;;;;;0.90;0.90;;;20.60;62.00;;;;;;6236680;28;20963;-38
2022/11/12 02:06:05;;;;;;;1.17;0.90;;;20.70;62.00;;;;;;6235646;28;20045;-39
2022/11/12 02:09:21;;;;;;;1.00;0.80;;;20.40;61.80;;;;;;6237884;28;20056;-38
2022/11/12 02:16:10;;;;;;;1.27;0.98;;;20.60;61.90;;;;;;6238387;28;20480;-38
2022/11/12 02:19:31;;;;;;;1.50;0.98;;;20.70;62.00;;;;;;6237876;28;20307;-38
2022/11/12 02:22:51;;;;;;;1.35;0.88;;;20.70;61.80;;;;;;6234261;28;20656;-38
2022/11/12 02:26:10;;;;;;;1.25;1.05;;;20.80;62.10;;;;;;6236912;28;20048;-39
2022/11/12 02:29:30;;;;;;;1.10;0.90;;;20.70;62.00;;;;;;6234459;28;20555;-39
2022/11/12 02:32:50;;;;;;;1.20;0.93;;;20.50;61.60;;;;;;6234371;28;20437;-38
2022/11/12 02:36:10;;;;;;;2.08;1.00;;;20.70;62.00;;;;;;6234627;28;20151;-39
2022/11/12 02:39:31;;;;;;;1.60;1.00;;;20.90;62.00;;;;;;6236927;28;20592;-38
2022/11/12 02:42:51;;;;;;;0.85;0.70;;;20.40;61.80;;;;;;6238278;28;20080;-38
2022/11/12 02:46:11;;;;;;;1.02;0.90;;;20.70;61.90;;;;;;6235376;28;20044;-40
2022/11/12 02:49:30;;;;;;;1.02;0.80;;;20.40;61.50;;;;;;6238718;28;20052;-38
2022/11/12 02:52:50;;;;;;;1.27;0.90;;;20.60;62.00;;;;;;6235601;28;20479;-39
2022/11/12 02:56:11;;;;;;;0.95;0.85;;;20.70;61.90;;;;;;6234491;28;20381;-39
2022/11/12 02:59:30;;;;;;;2.00;1.17;;;20.60;62.20;;;;;;6235293;28;20575;-39
2022/11/12 03:02:57;;;;;;;1.10;0.90;;;20.50;62.20;;;;;;6231269;28;20079;-38
2022/11/12 03:06:10;;;;;;;1.23;0.80;;;20.40;61.70;;;;;;6235692;28;20428;-38
2022/11/12 03:09:30;;;;;;;0.93;0.85;;;20.60;62.30;;;;;;6236079;28;20141;-39
2022/11/12 03:12:51;;;;;;;0.82;0.80;;;20.80;62.40;;;;;;6232729;28;20057;-38
2022/11/12 03:16:10;;;;;;;1.00;0.90;;;20.80;62.50;;;;;;6235841;28;20059;-38
2022/11/12 03:19:30;;;;;;;0.98;0.80;;;20.70;62.50;;;;;;6233584;28;20473;-39
2022/11/12 03:22:55;;;;;;;1.20;0.80;;;20.50;62.30;;;;;;6236543;28;20725;-39
2022/11/12 03:26:10;;;;;;;0.70;0.70;;;20.60;62.20;;;;;;6216495;28;20452;-38
2022/11/12 03:29:31;;;;;;;1.00;0.90;;;20.60;62.00;;;;;;6236367;28;20044;-38
2022/11/12 03:32:50;;;;;;;0.98;0.90;;;20.60;62.50;;;;;;6232843;28;20164;-38
2022/11/12 03:36:11;;;;;;;1.08;0.82;;;20.60;62.50;;;;;;6237351;28;20045;-37
2022/11/12 03:39:30;;;;;;;1.25;0.80;;;20.30;62.20;;;;;;6235557;28;20511;-38
2022/11/12 03:42:52;;;;;;;1.00;0.90;;;20.70;62.70;;;;;;6228694;28;20155;-39
2022/11/12 03:46:11;;;;;;;0.80;0.70;;;20.80;62.60;;;;;;6218240;28;20476;-38
2022/11/12 03:49:30;;;;;;;1.20;0.88;;;20.60;62.50;;;;;;6216298;28;20048;-38
2022/11/12 03:52:53;;;;;;;1.25;1.15;;;20.60;62.70;;;;;;6230983;28;20742;-38
2022/11/12 03:56:10;;;;;;;1.00;0.82;;;20.30;62.40;;;;;;6220339;28;20053;-38
2022/11/12 03:59:30;;;;;;;1.08;0.80;;;20.60;62.70;;;;;;6235673;28;20127;-39
2022/11/12 04:02:51;;;;;;;0.90;0.70;;;20.70;62.80;;;;;;6231772;28;20503;-38
2022/11/12 04:09:40;;;;;;;1.08;0.80;;;20.70;62.80;;;;;;6229776;28;20052;-38
2022/11/12 04:23:30;;;;;;;0.95;0.80;;;20.90;63.20;;;;;;6232074;28;20591;-38
2022/11/12 04:26:50;;;;;;;1.17;0.88;;;20.70;63.10;;;;;;6236773;28;20048;-38
2022/11/12 04:30:18;;;;;;;1.02;0.80;;;20.70;62.90;;;;;;6235168;28;20622;-38
2022/11/12 04:33:30;;;;;;;1.08;0.80;;;20.80;63.20;;;;;;6234706;28;20471;-38
2022/11/12 04:36:51;;;;;;;1.05;0.80;;;20.70;62.30;;;;;;6234464;28;20608;-38
2022/11/12 04:47:10;;;;;;;1.10;0.90;;;20.70;63.20;;;;;;6232438;28;20045;-40
2022/11/12 04:50:31;;;;;;;1.08;0.80;;;20.60;63.20;;;;;;6232248;28;20555;-38
2022/11/12 04:53:52;;;;;;;1.05;0.80;;;20.70;63.40;;;;;;6229500;28;20049;-38
2022/11/12 04:57:10;;;;;;;1.60;0.90;;;20.70;63.30;;;;;;6232621;28;20119;-38
2022/11/12 05:00:31;;;;;;;1.17;1.00;;;20.60;63.20;;;;;;6230069;28;20494;-39
2022/11/12 05:03:50;;;;;;;1.10;0.90;;;20.50;63.10;;;;;;6205639;28;20052;-38
2022/11/12 05:07:11;;;;;;;1.65;1.13;;;20.70;63.40;;;;;;6228155;28;20784;-38
2022/11/12 05:10:31;;;;;;;1.10;0.90;;;20.50;63.10;;;;;;6215393;28;20052;-38
2022/11/12 05:13:50;;;;;;;1.10;1.00;;;20.60;63.30;;;;;;6232264;28;20084;-38
2022/11/12 05:17:10;;;;;;;0.98;0.80;;;20.30;63.20;;;;;;6228805;28;20324;-38
2022/11/12 05:20:30;;;;;;;1.17;0.90;;;20.40;63.30;;;;;;6226425;28;20421;-40
2022/11/12 05:23:51;;;;;;;1.27;1.00;;;20.60;63.30;;;;;;6229603;28;20098;-38
2022/11/12 05:27:13;;;;;;;0.70;0.70;;;20.60;63.30;;;;;;6228080;28;21215;-38
2022/11/12 05:30:30;;;;;;;1.13;0.98;;;20.20;63.00;;;;;;6210611;28;20515;-38
2022/11/12 05:33:50;;;;;;;0.77;0.77;;;20.70;63.40;;;;;;6226887;28;20159;-37
2022/11/12 05:37:12;;;;;;;1.23;0.82;;;20.60;63.40;;;;;;6227762;28;20346;-38
2022/11/12 05:40:30;;;;;;;0.90;0.80;;;20.50;63.10;;;;;;6215409;28;20368;-38
2022/11/12 05:43:51;;;;;;;1.08;0.82;;;20.90;63.10;;;;;;6227321;28;20037;-38
2022/11/12 05:47:10;;;;;;;1.10;0.80;;;20.80;63.30;;;;;;6233185;28;20347;-38
2022/11/12 05:50:30;;;;;;;1.05;0.90;;;20.60;63.30;;;;;;6231013;28;20041;-38
2022/11/12 05:54:11;;;;;;;1.08;0.98;;;20.60;63.30;;;;;;6217794;28;20052;-38
2022/11/12 05:57:31;;;;;;;1.10;0.90;;;20.70;63.30;;;;;;6213609;28;20048;-38
2022/11/12 06:00:51;;;;;;;1.05;0.93;;;20.80;63.30;;;;;;6231247;28;20320;-38
2022/11/12 06:04:11;;;;;;;1.27;1.00;;;20.50;63.30;;;;;;6230108;28;20247;-38
2022/11/12 06:07:30;;;;;;;0.75;0.73;;;20.60;62.90;;;;;;6233795;28;20336;-38
2022/11/12 06:10:52;;;;;;;0.98;0.85;;;20.50;63.20;;;;;;6236019;28;20159;-38
2022/11/12 06:14:11;;;;;;;1.55;1.08;;;20.50;63.10;;;;;;6228405;28;20463;-40
2022/11/12 06:17:31;;;;;;;0.90;0.90;;;20.60;63.10;;;;;;6232747;28;20052;-38
2022/11/12 06:24:20;;;;;;;1.00;0.90;;;20.60;63.00;;;;;;6202290;28;20052;-38
2022/11/12 06:27:41;;;;;;;1.13;1.00;;;20.70;63.30;;;;;;6230437;28;20055;-38
2022/11/12 06:31:01;;;;;;;1.13;1.00;;;20.60;63.00;;;;;;6214149;28;20498;-38
2022/11/12 06:34:21;;;;;;;1.10;1.00;;;20.70;63.20;;;;;;6226347;28;20084;-38
2022/11/12 06:37:40;;;;;;;0.85;0.73;;;20.30;62.90;;;;;;6227478;28;20132;-38
2022/11/12 06:41:01;;;;;;;1.00;0.90;;;20.40;62.90;;;;;;6224182;28;20040;-38
2022/11/12 06:44:21;;;;;;;0.80;0.80;;;20.50;62.90;;;;;;6219008;28;20869;-38
2022/11/12 06:47:41;;;;;;;1.13;0.80;;;20.40;62.90;;;;;;6226978;28;20077;-38
2022/11/12 06:51:07;;;;;;;1.00;0.82;;;20.50;62.90;;;;;;6228909;28;20577;-38
2022/11/12 06:54:21;;;;;;;0.93;0.80;;;20.60;62.80;;;;;;6213778;28;20145;-38
2022/11/12 06:57:41;;;;;;;0.70;0.55;;;20.50;63.00;;;;;;6230195;28;20919;-38
2022/11/12 07:01:10;;;;;;;0.80;0.80;;;20.40;63.00;;;;;;6228196;28;20334;-38
2022/11/12 07:04:31;;;;;;;1.08;0.93;;;20.60;63.00;;;;;;6230088;28;20345;-38
2022/11/12 07:07:51;;;;;;;1.00;0.90;;;20.50;63.10;;;;;;6225709;28;20558;-38
2022/11/12 07:11:11;;;;;;;0.80;0.70;;;20.60;63.10;;;;;;6224895;28;20048;-39
2022/11/12 07:14:31;;;;;;;0.60;0.60;;;20.80;63.10;;;;;;6213810;28;20051;-38
2022/11/12 07:17:51;;;;;;;0.73;0.68;;;20.60;63.00;;;;;;6229860;28;20059;-38
2022/11/12 07:21:12;;;;;;;0.77;0.70;;;20.60;63.20;;;;;;6228312;28;20048;-38
2022/11/12 07:24:31;;;;;;;0.90;0.80;;;20.60;63.10;;;;;;6225570;28;20950;-38
2022/11/12 07:27:52;;;;;;;0.63;0.60;;;20.60;63.10;;;;;;6231177;28;20053;-38
2022/11/12 07:31:13;;;;;;;0.73;0.73;;;20.50;63.10;;;;;;6220237;28;20063;-38
2022/11/12 07:34:31;;;;;;;0.63;0.63;;;20.70;63.00;;;;;;6216680;28;20048;-38
2022/11/12 07:37:51;;;;;;;0.70;0.68;;;20.50;62.90;;;;;;6235581;28;20086;-38
2022/11/12 07:41:13;;;;;;;0.93;0.85;;;20.80;63.30;;;;;;6227849;28;20044;-38
2022/11/12 07:44:31;;;;;;;0.80;0.75;;;20.70;63.00;;;;;;6230074;28;20084;-38
2022/11/12 07:47:51;;;;;;;0.85;0.80;;;20.60;63.00;;;;;;6236294;28;20783;-39
2022/11/12 07:51:13;;;;;;;0.98;0.88;;;20.40;62.90;;;;;;6229978;28;20455;-38
2022/11/12 07:54:31;;;;;;;0.68;0.68;;;20.60;62.90;;;;;;6215255;28;20049;-38
2022/11/12 07:57:52;;;;;;;0.80;0.80;;;20.80;62.70;;;;;;6235393;28;20098;-38
2022/11/12 08:01:22;;;;;;;1.08;0.85;;;20.60;63.00;;;;;;6229729;28;20040;-38
2022/11/12 08:04:41;;;;;;;0.80;0.70;;;20.40;62.90;;;;;;6208541;28;20622;-38
2022/11/12 08:08:01;;;;;;;0.93;0.88;;;20.60;63.20;;;;;;6230478;28;20489;-38
2022/11/12 08:11:21;;;;;;;1.23;1.02;;;20.70;63.40;;;;;;6232539;28;20144;-38
2022/11/12 08:14:41;;;;;;;1.27;1.17;;;20.40;63.10;;;;;;6237362;28;20515;-38
2022/11/12 08:18:01;;;;;;;0.70;0.70;;;20.20;63.10;;;;;;6233779;28;20037;-38
2022/11/12 08:21:21;;;;;;;0.77;0.65;;;20.60;63.50;;;;;;6230639;28;20299;-38
2022/11/12 08:24:41;;;;;;;0.80;0.80;;;20.70;63.60;;;;;;6223371;28;20335;-38
2022/11/12 08:28:01;;;;;;;1.02;0.90;;;20.70;63.80;;;;;;6225030;28;20064;-38
2022/11/12 08:31:22;;;;;;;0.70;0.65;;;20.50;63.70;;;;;;6223986;28;20506;-38
2022/11/12 08:34:42;;;;;;;0.77;0.70;;;20.80;64.00;;;;;;6222336;28;20052;-38
2022/11/12 08:38:02;;;;;;;0.73;0.70;;;20.60;63.70;;;;;;6226666;28;20487;-38
2022/11/12 08:41:21;;;;;;;0.90;0.70;;;20.80;64.10;;;;;;6222114;28;20040;-38
2022/11/12 08:44:41;;;;;;;1.02;0.90;;;20.80;64.20;;;;;;6225006;28;20469;-38
2022/11/12 08:48:03;;;;;;;1.00;0.88;;;20.60;64.10;;;;;;6227361;28;20710;-38
2022/11/12 08:51:21;;;;;;;1.23;0.68;;;20.70;64.40;;;;;;6200364;28;20389;-38
2022/11/12 08:54:41;;;;;;;1.10;1.00;;;20.60;64.50;;;;;;6226638;28;20045;-38
2022/11/12 08:58:01;;;;;;;0.85;0.82;;;20.60;64.70;;;;;;6227367;28;20056;-38
2022/11/12 09:01:21;;;;;;;1.10;1.00;;;20.50;64.80;;;;;;6210715;28;20048;-38
2022/11/12 09:04:41;;;;;;;0.95;0.70;;;20.60;64.90;;;;;;6223503;28;20388;-38
2022/11/12 09:08:04;;;;;;;1.02;0.93;;;20.80;65.60;;;;;;6226368;28;20542;-38
2022/11/12 09:11:21;;;;;;;0.80;0.80;;;20.60;65.20;;;;;;6211680;28;20595;-38
2022/11/12 09:14:41;;;;;;;1.00;0.90;;;20.90;65.60;;;;;;6227226;28;20053;-38
2022/11/12 09:18:02;;;;;;;1.00;0.90;;;20.70;65.40;;;;;;6229085;28;20727;-38
2022/11/12 09:21:23;;;;;;;0.80;0.80;;;20.80;65.60;;;;;;6229276;28;20495;-38
2022/11/12 09:24:41;;;;;;;0.88;0.80;;;20.40;65.80;;;;;;6229829;28;20067;-38
2022/11/12 09:28:06;;;;;;;0.90;0.90;;;20.70;66.00;;;;;;6228251;28;21068;-38
2022/11/12 09:31:21;;;;;;;0.77;0.77;;;20.70;66.00;;;;;;6198103;28;20044;-38
2022/11/12 09:34:41;;;;;;;0.95;0.85;;;20.70;66.20;;;;;;6226480;28;20588;-38
2022/11/12 09:38:01;;;;;;;0.70;0.70;;;20.50;66.20;;;;;;6221874;28;20320;-38
2022/11/12 09:41:25;;;;;;;1.10;1.00;;;20.80;66.40;;;;;;6226758;28;20318;-38
2022/11/12 09:44:45;;;;;;;0.80;0.70;;;20.60;66.00;;;;;;6223044;28;20954;-38
2022/11/12 09:48:08;;;;;;;0.88;0.75;;;20.80;66.40;;;;;;6210661;28;20056;-38
2022/11/12 09:51:24;;;;;;;1.10;0.85;;;20.80;66.60;;;;;;6228748;28;20052;-37
2022/11/12 09:54:42;;;;;;;1.00;0.90;;;20.70;66.60;;;;;;6210484;28;20551;-38
2022/11/12 09:58:01;;;;;;;1.00;0.90;;;20.50;66.50;;;;;;6224601;28;20060;-38
2022/11/12 10:01:29;;;;;;;0.80;0.63;;;20.60;66.80;;;;;;6231572;28;20699;-38
2022/11/12 10:04:56;;;;;;;1.00;0.80;;;20.90;67.00;;;;;;6223059;28;20468;-38
2022/11/12 10:08:27;;;;;;;0.70;0.70;;;20.50;67.50;;;;;;6207726;28;20333;-38
2022/11/12 10:19:32;;;;;;;0.82;0.80;;;21.20;67.60;;;;;;6224061;28;20305;-38
2022/11/12 10:23:09;;;;;;;1.10;0.88;;;20.80;67.40;;;;;;6218423;28;20893;-38
2022/11/12 10:26:24;;;;;;;1.17;1.00;;;20.30;67.40;;;;;;6230199;28;20052;-38
2022/11/12 10:29:48;;;;;;;1.00;0.85;;;20.80;67.60;;;;;;6225446;28;20102;-38
2022/11/12 10:33:02;;;;;;;0.80;0.80;;;20.90;67.70;;;;;;6226778;28;21024;-38
2022/11/12 10:36:28;;;;;;;1.00;0.90;;;21.40;67.90;;;;;;6209527;28;20052;-38
2022/11/12 10:39:46;;;;;;;0.93;0.80;;;20.90;68.00;;;;;;6225782;28;20606;-38
2022/11/12 10:43:02;;;;;;;0.80;0.75;;;20.60;68.00;;;;;;6226367;28;20195;-38
2022/11/12 10:46:24;;;;;;;1.17;1.08;;;20.90;68.20;;;;;;6227633;28;20048;-38
2022/11/12 10:49:41;;;;;;;1.10;0.98;;;20.90;68.30;;;;;;6212465;28;20371;-38
2022/11/12 10:53:03;;;;;;;1.20;1.05;;;21.20;68.50;;;;;;6230562;28;20047;-38
2022/11/12 10:56:25;;;;;;;1.10;0.80;;;20.70;68.30;;;;;;6207763;28;20083;-38
2022/11/12 10:59:41;;;;;;;0.80;0.80;;;21.00;68.70;;;;;;6220058;28;20037;-38
2022/11/12 11:03:05;;;;;;;1.38;1.00;;;20.90;68.50;;;;;;6228882;28;20140;-38
2022/11/12 11:06:23;;;;;;;1.25;1.10;;;21.00;68.70;;;;;;6217129;28;20052;-39
2022/11/12 11:09:54;;;;;;;1.00;0.90;;;21.60;69.30;;;;;;6231792;28;20081;-39
2022/11/12 11:13:20;;;;;;;1.00;0.90;;;20.90;69.10;;;;;;6237291;28;20091;-39
2022/11/12 11:16:49;;;;;;;1.00;0.90;;;20.90;69.00;;;;;;6203542;28;20587;-39
2022/11/12 11:20:03;;;;;;;0.70;0.63;;;20.80;69.30;;;;;;6234074;28;20057;-38
2022/11/12 11:23:25;;;;;;;1.25;0.90;;;21.00;69.40;;;;;;6232539;28;20321;-38
2022/11/12 11:26:51;;;;;;;0.95;0.80;;;21.00;69.50;;;;;;6212613;28;20082;-38
2022/11/12 11:30:14;;;;;;;0.80;0.80;;;21.10;69.70;;;;;;6231723;28;20328;-38
2022/11/12 11:33:40;;;;;;;1.00;0.80;;;21.20;69.90;;;;;;6227760;28;20051;-39
2022/11/12 11:37:16;;;;;;;0.60;0.60;;;21.10;69.90;;;;;;6225097;28;20044;-38
2022/11/12 11:40:36;;;;;;;1.08;0.90;;;21.00;69.90;;;;;;6223476;28;20634;-40
2022/11/12 11:44:02;;;;;;;1.10;0.90;;;21.20;70.20;;;;;;6210770;28;20052;-38
2022/11/12 11:47:33;;;;;;;1.23;0.90;;;20.90;70.20;;;;;;6214654;28;20215;-38
2022/11/12 11:51:28;;;;;;;1.50;1.15;;;21.20;70.40;;;;;;6216185;28;20765;-38
2022/11/12 11:55:03;;;;;;;1.10;0.98;;;21.10;70.30;;;;;;6225178;28;20792;-38
2022/11/12 11:58:37;;;;;;;1.23;1.10;;;21.10;70.60;;;;;;6225355;28;20615;-38
2022/11/12 12:02:07;;;;;;;1.10;0.90;;;21.20;70.80;;;;;;6229780;28;20569;-38
2022/11/12 12:05:32;;;;;;;1.73;0.80;;;21.50;71.10;;;;;;6229833;28;20644;-38
2022/11/12 12:09:05;;;;;;;1.00;0.90;;;21.20;70.90;;;;;;6212657;28;20218;-38
2022/11/12 12:12:35;;;;;;;1.10;0.75;;;20.90;70.70;;;;;;6229330;28;20052;-38
2022/11/12 12:16:02;;;;;;;0.90;0.77;;;21.30;71.10;;;;;;6224523;28;20106;-38
2022/11/12 12:19:35;;;;;;;1.02;0.93;;;21.00;71.00;;;;;;6214190;28;20081;-38
2022/11/12 12:22:58;;;;;;;0.95;0.85;;;20.80;71.00;;;;;;6229391;28;20973;-39
2022/11/12 12:26:15;;;;;;;0.90;0.80;;;21.40;71.10;;;;;;6213850;28;20080;-38
2022/11/12 12:29:37;;;;;;;0.82;0.60;;;21.20;71.30;;;;;;6212801;28;20151;-38
2022/11/12 12:32:57;;;;;;;0.75;0.70;;;21.30;71.50;;;;;;6230604;28;20449;-37
2022/11/12 12:36:16;;;;;;;0.75;0.75;;;21.20;71.60;;;;;;6215843;28;20044;-38
2022/11/12 12:39:43;;;;;;;0.68;0.60;;;21.30;71.60;;;;;;6224100;28;20332;-38
2022/11/12 12:43:09;;;;;;;0.80;0.70;;;21.30;71.90;;;;;;6210618;28;20440;-38
2022/11/12 12:46:24;;;;;;;0.60;0.60;;;21.30;71.80;;;;;;6226272;28;20119;-38
2022/11/12 12:49:43;;;;;;;0.80;0.70;;;21.40;71.90;;;;;;6226584;28;20608;-38
2022/11/12 12:53:02;;;;;;;0.70;0.60;;;21.30;72.00;;;;;;6224540;28;20230;-38
2022/11/12 12:56:41;;;;;;;1.25;0.90;;;21.60;72.30;;;;;;6222749;28;20475;-38
2022/11/12 13:00:23;;;;;;;0.73;0.68;;;21.30;72.30;;;;;;6226508;28;20347;-38
2022/11/12 13:03:50;;;;;;;1.27;0.80;;;21.10;72.30;;;;;;6226070;28;20049;-38
2022/11/12 13:07:11;;;;;;;0.98;0.80;;;21.50;72.60;;;;;;6222533;28;20401;-38
2022/11/12 13:10:47;;;;;;;0.73;0.60;;;21.40;72.60;;;;;;6222461;28;20680;-38
2022/11/12 13:14:41;;;;;;;0.90;0.75;;;21.30;72.50;;;;;;6204699;28;20788;-38
2022/11/12 13:18:01;;;;;;;0.70;0.70;;;21.40;72.80;;;;;;6214433;28;20271;-39
2022/11/12 13:21:22;;;;;;;0.68;0.68;;;21.50;72.90;;;;;;6221562;28;20291;-38
2022/11/12 13:25:01;;;;;;;1.38;0.98;;;21.80;73.00;;;;;;6222238;28;20336;-38
2022/11/12 13:28:21;;;;;;;0.70;0.70;;;21.30;72.90;;;;;;6224602;28;20441;-38
2022/11/12 13:31:41;;;;;;;0.80;0.80;;;21.20;73.10;;;;;;6220921;28;20327;-38
2022/11/12 13:35:21;;;;;;;0.40;0.40;;;21.60;73.20;;;;;;6223820;28;20052;-39
2022/11/12 13:38:41;;;;;;;0.85;0.70;;;21.70;73.00;;;;;;6208648;28;20049;-38
2022/11/12 13:45:47;;;;;;;0.68;0.60;;;21.70;73.30;;;;;;6206880;28;20873;-38
2022/11/12 13:49:05;;;;;;;1.02;0.60;;;21.70;73.20;;;;;;6209139;28;20044;-38
2022/11/12 13:52:21;;;;;;;0.65;0.65;;;21.60;73.20;;;;;;6207500;28;20916;-38
2022/11/12 13:55:48;;;;;;;0.77;0.65;;;21.70;73.60;;;;;;6220834;28;20387;-38
2022/11/12 13:59:14;;;;;;;0.70;0.50;;;21.70;73.50;;;;;;6213144;28;20049;-38
2022/11/12 14:02:32;;;;;;;0.60;0.52;;;21.60;73.60;;;;;;6197856;28;21061;-39
2022/11/12 14:05:51;;;;;;;0.70;0.50;;;21.60;73.40;;;;;;6221472;28;20304;-38
2022/11/12 14:09:26;;;;;;;0.70;0.70;;;21.50;73.50;;;;;;6222949;28;20374;-38
2022/11/12 14:13:05;;;;;;;0.90;0.70;;;21.80;73.70;;;;;;6217941;28;20859;-38
2022/11/12 14:16:32;;;;;;;0.90;0.65;;;21.80;73.90;;;;;;6223918;28;20469;-38
2022/11/12 14:20:06;;;;;;;0.80;0.63;;;21.40;73.50;;;;;;6226398;28;20362;-38
2022/11/12 14:23:22;;;;;;;1.08;0.80;;;21.70;73.80;;;;;;6223157;28;21113;-38
2022/11/12 14:26:42;;;;;;;0.70;0.50;;;21.50;73.60;;;;;;6201020;28;20083;-38
2022/11/12 14:30:11;;;;;;;0.70;0.60;;;21.80;74.00;;;;;;6222321;28;20040;-38
2022/11/12 14:33:32;;;;;;;0.50;0.50;;;21.70;73.80;;;;;;6207684;28;20052;-38
2022/11/12 14:36:54;;;;;;;0.90;0.43;;;21.60;73.80;;;;;;6203657;28;20056;-38
2022/11/12 14:40:15;;;;;;;0.68;0.68;;;21.70;74.00;;;;;;6219374;28;20051;-38
2022/11/12 14:43:36;;;;;;;0.85;0.73;;;21.50;73.70;;;;;;6219698;28;20044;-38
2022/11/12 14:46:54;;;;;;;0.60;0.60;;;21.80;73.90;;;;;;6219779;28;20075;-38
2022/11/12 14:50:15;;;;;;;0.88;0.60;;;21.80;73.80;;;;;;6224104;28;20575;-40
2022/11/12 14:53:37;;;;;;;0.80;0.65;;;22.00;74.00;;;;;;6204673;28;20051;-38
2022/11/12 14:56:51;;;;;;;0.73;0.60;;;21.70;73.80;;;;;;6207716;28;20327;-39
2022/11/12 15:00:35;;;;;;;1.00;0.73;;;21.80;74.00;;;;;;6220223;28;20332;-38
2022/11/12 15:04:03;;;;;;;1.00;0.70;;;22.00;74.20;;;;;;6195322;28;22158;-38
2022/11/12 15:07:24;;;;;;;0.75;0.60;;;21.90;73.70;;;;;;6198431;28;20482;-39
2022/11/12 15:10:43;;;;;;;0.93;0.80;;;21.50;73.70;;;;;;6193578;28;20396;-38
2022/11/12 15:14:03;;;;;;;0.90;0.70;;;21.90;73.90;;;;;;6189380;28;20045;-38
2022/11/12 15:17:30;;;;;;;0.70;0.70;;;21.70;73.80;;;;;;6218790;28;20352;-38
2022/11/12 15:21:11;;;;;;;1.02;0.60;;;21.80;73.90;;;;;;6221406;28;20056;-38
2022/11/12 15:24:32;;;;;;;1.05;0.73;;;22.00;74.00;;;;;;6206817;28;20052;-38
2022/11/12 15:27:51;;;;;;;0.88;0.60;;;21.60;73.70;;;;;;6191003;28;20040;-38
2022/11/12 15:31:17;;;;;;;1.08;0.80;;;21.90;74.00;;;;;;6221279;28;20092;-38
2022/11/12 15:34:44;;;;;;;0.90;0.63;;;21.60;73.70;;;;;;6207178;28;20045;-39
2022/11/12 15:38:05;;;;;;;1.02;0.70;;;21.80;74.00;;;;;;6187107;28;20055;-38
2022/11/12 15:41:24;;;;;;;0.70;0.60;;;22.10;73.80;;;;;;6215897;28;20412;-39
2022/11/12 15:44:41;;;;;;;0.88;0.80;;;21.70;73.60;;;;;;6203051;28;20485;-39
2022/11/12 15:48:01;;;;;;;1.17;0.80;;;21.90;73.50;;;;;;6217246;28;20948;-39
2022/11/12 15:51:21;;;;;;;1.08;0.60;;;21.80;73.70;;;;;;6221736;28;20053;-38
2022/11/12 15:54:41;;;;;;;0.77;0.75;;;21.90;74.10;;;;;;6220932;28;20059;-38
2022/11/12 15:58:01;;;;;;;1.10;0.98;;;22.00;73.60;;;;;;6218829;28;20044;-38
2022/11/12 16:01:21;;;;;;;0.80;0.70;;;21.80;73.20;;;;;;6216074;28;20229;-38
2022/11/12 16:04:41;;;;;;;0.82;0.60;;;22.00;73.60;;;;;;6222376;28;20646;-40
2022/11/12 16:08:01;;;;;;;0.80;0.70;;;21.60;73.30;;;;;;6220766;28;20052;-39
2022/11/12 16:14:51;;;;;;;0.82;0.80;;;22.20;73.20;;;;;;6207676;28;21014;-39
2022/11/12 16:18:11;;;;;;;0.90;0.80;;;22.20;73.50;;;;;;6222336;28;20049;-38
2022/11/12 16:21:31;;;;;;;1.13;0.90;;;21.90;73.30;;;;;;6219539;28;20823;-38
2022/11/12 16:24:51;;;;;;;0.90;0.70;;;21.60;73.20;;;;;;6217696;28;20083;-39
2022/11/12 16:28:14;;;;;;;1.48;1.10;;;22.00;73.10;;;;;;6222079;28;20370;-39
2022/11/12 16:31:31;;;;;;;1.60;0.82;;;21.90;73.00;;;;;;6199632;28;20850;-38
2022/11/12 16:34:51;;;;;;;0.98;0.88;;;22.00;72.80;;;;;;6216563;28;20174;-38
2022/11/12 16:38:13;;;;;;;1.15;0.95;;;21.80;73.20;;;;;;6219328;28;20579;-39
2022/11/12 16:41:31;;;;;;;1.27;0.90;;;22.00;73.10;;;;;;6218408;28;20045;-38
2022/11/12 16:44:52;;;;;;;1.00;0.90;;;22.00;73.20;;;;;;6220816;28;20375;-39
2022/11/12 16:48:15;;;;;;;1.08;0.80;;;21.90;73.10;;;;;;6221956;28;20041;-38
2022/11/12 16:51:31;;;;;;;1.08;0.82;;;21.80;72.80;;;;;;6219530;28;20083;-39
2022/11/12 16:54:51;;;;;;;0.88;0.80;;;21.50;72.80;;;;;;6221214;28;20102;-38
2022/11/12 16:58:12;;;;;;;0.98;0.88;;;21.60;73.00;;;;;;6219633;28;20453;-38
2022/11/12 17:01:33;;;;;;;1.40;1.00;;;22.00;72.90;;;;;;6206792;28;20266;-40
2022/11/12 17:04:51;;;;;;;1.33;1.02;;;21.80;72.90;;;;;;6218607;28;20459;-40
2022/11/12 17:08:13;;;;;;;1.00;0.90;;;21.80;73.00;;;;;;6217658;28;20603;-39
2022/11/12 17:11:31;;;;;;;1.23;0.80;;;21.70;73.00;;;;;;6219827;28;20075;-38
2022/11/12 17:14:51;;;;;;;0.95;0.85;;;21.80;73.00;;;;;;6223094;28;20590;-38
2022/11/12 17:18:12;;;;;;;0.90;0.77;;;21.70;73.00;;;;;;6210813;28;20052;-38
2022/11/12 17:21:31;;;;;;;1.23;0.90;;;21.70;73.00;;;;;;6210647;28;20044;-39
2022/11/12 17:24:51;;;;;;;0.90;0.80;;;21.70;72.90;;;;;;6216537;28;20963;-38
2022/11/12 17:28:11;;;;;;;1.30;1.00;;;21.60;72.90;;;;;;6218752;28;21351;-38
2022/11/12 17:31:31;;;;;;;1.02;0.80;;;21.90;73.10;;;;;;6216917;28;20497;-38
2022/11/12 17:34:52;;;;;;;0.82;0.70;;;21.70;72.60;;;;;;6221767;28;20185;-38
2022/11/12 17:38:11;;;;;;;0.98;0.85;;;21.60;73.00;;;;;;6221242;28;20048;-39
2022/11/12 17:41:31;;;;;;;0.93;0.80;;;21.60;72.90;;;;;;6220522;28;20511;-38
2022/11/12 17:44:51;;;;;;;0.85;0.68;;;21.70;73.00;;;;;;6222802;28;20381;-38
2022/11/12 17:48:11;;;;;;;1.15;0.82;;;21.70;73.00;;;;;;6220046;28;20831;-39
2022/11/12 17:51:32;;;;;;;0.82;0.80;;;21.60;72.90;;;;;;6222341;28;20265;-39
2022/11/12 17:54:51;;;;;;;0.82;0.75;;;21.70;72.70;;;;;;6220966;28;20440;-39
2022/11/12 17:58:11;;;;;;;1.33;0.80;;;21.70;72.90;;;;;;6219816;28;20079;-39
2022/11/12 18:01:33;;;;;;;1.45;1.02;;;21.40;72.60;;;;;;6222600;28;20063;-38
2022/11/12 18:04:51;;;;;;;0.93;0.88;;;21.50;72.50;;;;;;6203394;28;20048;-39
2022/11/12 18:08:12;;;;;;;0.85;0.75;;;21.80;72.40;;;;;;6225072;28;20352;-38
2022/11/12 18:11:40;;;;;;;1.25;1.00;;;21.60;72.80;;;;;;6218160;28;20044;-38
2022/11/12 18:15:01;;;;;;;0.90;0.70;;;21.50;72.60;;;;;;6205950;28;20064;-38